Time;durP1;ratioP1;P1;durP2;ratioP2;P2;SDS_P1;SDS_P2;PMS_P1;PMS_P2;Temp;Humidity;BMP_temperature;BMP_pressure;BME280_temperature;BME280_humidity;BME280_pressure;Samples;Min_cycle;Max_cycle;Signal;HPM_P1;HPM_P2
2022/10/27 00:01:04;;;;;;;16.02;2.72;;;17.20;99.90;;;;;;4998177;28;20030;-68
2022/10/27 00:03:30;;;;;;;9.10;3.10;;;17.10;99.90;;;;;;5016100;28;20030;-69
2022/10/27 00:05:56;;;;;;;12.32;2.80;;;16.90;99.90;;;;;;5016422;28;20034;-69
2022/10/27 00:08:22;;;;;;;9.30;3.30;;;17.00;99.90;;;;;;5014317;28;20028;-68
2022/10/27 00:10:59;;;;;;;7.07;2.88;;;16.80;99.90;;;;;;5015876;28;20080;-70
2022/10/27 00:13:25;;;;;;;11.38;2.50;;;16.70;99.90;;;;;;5015793;28;20022;-69
2022/10/27 00:15:58;;;;;;;13.88;3.60;;;16.80;99.90;;;;;;5015533;28;20112;-68
2022/10/27 00:18:24;;;;;;;18.20;2.92;;;16.80;99.90;;;;;;5016284;28;20459;-68
2022/10/27 00:21:02;;;;;;;7.63;2.50;;;16.70;99.90;;;;;;5015778;28;20021;-69
2022/10/27 00:23:28;;;;;;;6.80;2.92;;;16.70;99.90;;;;;;5003371;28;20492;-68
2022/10/27 00:25:54;;;;;;;8.73;2.53;;;16.70;99.90;;;;;;5015961;28;20065;-69
2022/10/27 00:28:21;;;;;;;9.50;2.80;;;16.70;99.90;;;;;;5015591;28;20033;-69
2022/10/27 00:30:46;;;;;;;17.58;3.30;;;16.60;99.90;;;;;;5015455;28;20026;-69
2022/10/27 00:33:12;;;;;;;8.18;2.80;;;16.60;99.90;;;;;;5015509;28;20024;-69
2022/10/27 00:35:38;;;;;;;10.63;2.90;;;16.70;99.90;;;;;;4997960;28;20080;-69
2022/10/27 00:38:03;;;;;;;10.45;3.30;;;16.60;99.90;;;;;;5015529;28;20081;-69
2022/10/27 00:40:36;;;;;;;12.10;3.17;;;16.50;99.90;;;;;;5015009;28;20482;-68
2022/10/27 00:43:02;;;;;;;8.85;3.20;;;16.50;99.90;;;;;;5015530;28;20022;-68
2022/10/27 00:45:28;;;;;;;9.23;2.72;;;16.60;99.90;;;;;;5015025;28;20025;-69
2022/10/27 00:47:54;;;;;;;11.57;3.13;;;16.50;99.90;;;;;;5015571;28;20375;-69
2022/10/27 00:50:25;;;;;;;10.23;3.05;;;16.50;99.90;;;;;;5015032;28;20045;-68
2022/10/27 00:52:58;;;;;;;10.57;3.27;;;16.40;99.90;;;;;;5015338;28;20057;-68
2022/10/27 00:55:32;;;;;;;8.50;2.80;;;16.40;99.90;;;;;;5015149;28;20030;-69
2022/10/27 00:58:02;;;;;;;13.23;3.58;;;16.30;99.90;;;;;;5015093;28;20030;-68
2022/10/27 01:00:28;;;;;;;14.10;2.88;;;16.30;99.90;;;;;;5014689;28;20036;-68
2022/10/27 01:02:54;;;;;;;9.07;3.47;;;16.30;99.90;;;;;;5014973;28;20037;-69
2022/10/27 01:05:23;;;;;;;10.60;3.50;;;16.30;99.90;;;;;;5015040;28;20069;-69
2022/10/27 01:07:51;;;;;;;13.02;3.08;;;16.10;99.90;;;;;;5014987;28;20052;-68
2022/10/27 01:10:17;;;;;;;10.93;3.25;;;16.10;99.90;;;;;;5014920;28;20073;-68
2022/10/27 01:12:44;;;;;;;11.75;2.65;;;16.20;99.90;;;;;;5015010;28;20037;-68
2022/10/27 01:15:11;;;;;;;12.95;3.17;;;16.20;99.90;;;;;;4997100;28;20022;-69
2022/10/27 01:17:59;;;;;;;9.60;3.47;;;16.20;99.90;;;;;;5014673;28;20037;-72
2022/10/27 01:20:53;;;;;;;12.85;3.58;;;16.20;99.90;;;;;;5014726;28;20038;-72
2022/10/27 01:24:11;;;;;;;13.10;3.47;;;16.20;99.90;;;;;;4985566;28;20034;-72
2022/10/27 01:26:52;;;;;;;17.25;3.28;;;16.00;99.90;;;;;;4979740;28;20042;-72
2022/10/27 01:30:01;;;;;;;15.02;3.30;;;16.00;99.90;;;;;;5014229;28;20429;-72
2022/10/27 01:32:42;;;;;;;14.65;3.78;;;15.90;99.90;;;;;;4998592;28;20104;-72
2022/10/27 01:35:47;;;;;;;12.05;3.63;;;15.90;99.90;;;;;;5001130;28;20025;-70
2022/10/27 01:38:26;;;;;;;8.18;3.42;;;16.00;99.90;;;;;;4996154;28;20402;-72
2022/10/27 01:40:55;;;;;;;12.10;3.47;;;16.00;99.90;;;;;;5014493;28;20109;-72
2022/10/27 01:43:24;;;;;;;11.73;3.88;;;16.00;99.90;;;;;;5013708;28;20026;-73
2022/10/27 01:45:52;;;;;;;11.00;3.60;;;15.90;99.90;;;;;;5014159;28;20041;-72
2022/10/27 01:48:19;;;;;;;15.65;3.35;;;15.90;99.90;;;;;;5014209;28;20024;-72
2022/10/27 01:50:45;;;;;;;11.75;3.22;;;16.00;99.90;;;;;;5014146;28;20045;-71
2022/10/27 01:53:11;;;;;;;13.48;3.83;;;15.80;99.90;;;;;;5013368;28;20049;-72
2022/10/27 01:55:40;;;;;;;16.55;4.72;;;15.90;99.90;;;;;;5014209;28;20026;-72
2022/10/27 01:58:31;;;;;;;9.95;3.47;;;16.00;99.90;;;;;;5013512;28;20394;-70
2022/10/27 02:01:39;;;;;;;9.82;3.70;;;16.00;99.90;;;;;;4996517;28;20414;-69
2022/10/27 02:04:54;;;;;;;10.23;3.28;;;16.10;99.90;;;;;;4984409;28;20038;-69
2022/10/27 02:07:32;;;;;;;12.32;3.75;;;16.10;99.90;;;;;;4979341;28;20042;-69
2022/10/27 02:10:09;;;;;;;10.50;3.95;;;16.10;99.90;;;;;;5013763;28;20125;-69
2022/10/27 02:12:37;;;;;;;15.07;3.60;;;16.10;99.90;;;;;;4995925;28;20478;-69
2022/10/27 02:15:38;;;;;;;13.55;3.88;;;15.80;99.90;;;;;;4995897;28;20390;-70
2022/10/27 02:18:27;;;;;;;17.17;4.40;;;16.00;99.90;;;;;;5013395;28;20127;-69
2022/10/27 02:20:58;;;;;;;11.70;3.58;;;16.00;99.90;;;;;;5013597;28;20568;-69
2022/10/27 02:23:24;;;;;;;13.85;3.83;;;15.80;99.90;;;;;;4996013;28;20033;-69
2022/10/27 02:26:13;;;;;;;10.63;3.90;;;15.70;99.90;;;;;;4995723;28;20034;-69
2022/10/27 02:29:11;;;;;;;8.80;3.63;;;15.80;99.90;;;;;;4985472;28;20034;-69
2022/10/27 02:31:41;;;;;;;10.73;3.67;;;15.70;99.90;;;;;;5000368;28;20121;-69
2022/10/27 02:34:08;;;;;;;23.17;4.93;;;15.60;99.90;;;;;;5013294;28;20474;-69
2022/10/27 02:36:35;;;;;;;8.77;3.83;;;15.50;99.90;;;;;;5013140;28;20483;-69
2022/10/27 02:39:01;;;;;;;11.82;3.72;;;15.60;99.90;;;;;;4995867;28;20421;-69
2022/10/27 02:41:27;;;;;;;12.68;4.50;;;15.70;99.90;;;;;;5012963;28;20029;-69
2022/10/27 02:43:53;;;;;;;17.90;4.80;;;15.60;99.90;;;;;;5013330;28;20018;-69
2022/10/27 02:46:18;;;;;;;13.73;3.95;;;15.50;99.90;;;;;;5013270;28;20034;-69
2022/10/27 02:48:44;;;;;;;9.45;4.38;;;15.50;99.90;;;;;;5013470;28;20122;-68
2022/10/27 02:51:10;;;;;;;11.98;4.43;;;15.60;99.90;;;;;;4995764;28;20041;-69
2022/10/27 02:53:36;;;;;;;16.20;5.03;;;15.60;99.90;;;;;;4995322;28;20466;-69
2022/10/27 02:56:02;;;;;;;16.05;4.20;;;15.70;99.90;;;;;;5012944;28;20079;-69
2022/10/27 02:58:28;;;;;;;17.45;4.25;;;15.70;99.90;;;;;;5012802;28;20018;-69
2022/10/27 03:00:55;;;;;;;6.82;3.70;;;15.60;99.90;;;;;;5013023;28;20371;-69
2022/10/27 03:03:21;;;;;;;13.02;3.45;;;15.60;99.90;;;;;;5012913;28;20045;-69
2022/10/27 03:05:47;;;;;;;12.45;3.55;;;15.60;99.90;;;;;;5013066;28;20045;-69
2022/10/27 03:08:13;;;;;;;10.70;3.35;;;15.60;99.90;;;;;;5013146;28;20034;-69
2022/10/27 03:10:38;;;;;;;13.88;3.53;;;15.60;99.90;;;;;;5012256;28;20033;-69
2022/10/27 03:13:04;;;;;;;11.32;4.45;;;15.50;99.90;;;;;;4995565;28;20386;-69
2022/10/27 03:15:30;;;;;;;15.95;3.67;;;15.50;99.90;;;;;;5012770;28;20029;-69
2022/10/27 03:17:56;;;;;;;11.57;4.07;;;15.50;99.90;;;;;;5013097;28;20069;-69
2022/10/27 03:20:21;;;;;;;11.18;3.85;;;15.50;99.90;;;;;;5012761;28;20088;-69
2022/10/27 03:22:47;;;;;;;17.17;4.25;;;15.50;99.90;;;;;;5012717;28;20034;-69
2022/10/27 03:25:14;;;;;;;10.65;4.00;;;15.40;99.90;;;;;;5012496;28;20065;-69
2022/10/27 03:27:42;;;;;;;17.35;4.07;;;15.30;99.90;;;;;;4995399;28;20378;-69
2022/10/27 03:30:10;;;;;;;12.48;3.80;;;15.40;99.90;;;;;;5012477;28;20042;-69
2022/10/27 03:32:36;;;;;;;13.30;3.38;;;15.50;99.90;;;;;;5012643;28;20030;-68
2022/10/27 03:35:01;;;;;;;19.23;4.82;;;15.50;99.90;;;;;;5012723;28;20038;-69
2022/10/27 03:37:27;;;;;;;10.48;4.05;;;15.50;99.90;;;;;;4995596;28;20049;-69
2022/10/27 03:39:53;;;;;;;12.65;4.53;;;15.40;99.90;;;;;;5012239;28;20080;-69
2022/10/27 03:42:19;;;;;;;12.43;4.35;;;15.30;99.90;;;;;;4995233;28;20049;-69
2022/10/27 03:44:47;;;;;;;9.82;3.83;;;15.40;99.90;;;;;;5012567;28;20026;-69
2022/10/27 03:47:12;;;;;;;13.63;3.92;;;15.40;99.90;;;;;;5012814;28;20091;-69
2022/10/27 03:49:38;;;;;;;7.47;3.78;;;15.40;99.90;;;;;;5012328;28;20041;-70
2022/10/27 03:52:04;;;;;;;15.20;4.38;;;15.50;99.90;;;;;;4995241;28;20070;-72
2022/10/27 03:54:30;;;;;;;12.80;4.25;;;15.40;99.90;;;;;;5012377;28;20074;-71
2022/10/27 03:56:57;;;;;;;13.60;4.63;;;15.40;99.90;;;;;;5012644;28;20026;-69
2022/10/27 03:59:23;;;;;;;11.50;4.18;;;15.40;99.90;;;;;;5012727;28;20034;-69
2022/10/27 04:01:48;;;;;;;11.80;3.33;;;15.40;99.90;;;;;;5012049;28;20029;-69
2022/10/27 04:04:14;;;;;;;8.68;3.58;;;15.30;99.90;;;;;;5012474;28;20030;-69
2022/10/27 04:06:40;;;;;;;11.70;3.97;;;15.40;99.90;;;;;;5012283;28;20022;-70
2022/10/27 04:09:06;;;;;;;9.95;4.10;;;15.40;99.90;;;;;;5012142;28;20037;-69
2022/10/27 04:11:32;;;;;;;12.40;3.33;;;15.30;99.90;;;;;;5012362;28;20474;-68
2022/10/27 04:13:57;;;;;;;11.32;3.30;;;15.30;99.90;;;;;;5012471;28;20034;-69
2022/10/27 04:16:23;;;;;;;15.25;4.00;;;15.20;99.90;;;;;;4996348;28;20033;-70
2022/10/27 04:18:49;;;;;;;12.80;3.60;;;15.20;99.90;;;;;;5015859;28;20026;-69
2022/10/27 04:21:15;;;;;;;7.30;2.67;;;15.20;99.90;;;;;;4998268;28;20398;-69
2022/10/27 04:23:41;;;;;;;17.50;3.55;;;15.20;99.90;;;;;;4998061;28;20022;-70
2022/10/27 04:26:07;;;;;;;7.55;3.40;;;15.20;99.90;;;;;;5015705;28;20475;-69
2022/10/27 04:28:33;;;;;;;13.38;2.55;;;15.30;99.90;;;;;;5015910;28;20018;-69
2022/10/27 04:30:59;;;;;;;7.00;3.35;;;15.30;99.90;;;;;;5015979;28;20088;-69
2022/10/27 04:33:25;;;;;;;17.60;5.53;;;15.30;99.90;;;;;;5015665;28;20018;-69
2022/10/27 04:35:50;;;;;;;8.95;4.75;;;15.40;99.90;;;;;;5015445;28;20030;-69
2022/10/27 04:38:16;;;;;;;12.88;3.50;;;15.30;99.90;;;;;;4997906;28;20463;-69
2022/10/27 04:40:42;;;;;;;8.07;2.60;;;15.30;99.90;;;;;;5015461;28;20022;-69
2022/10/27 04:43:08;;;;;;;5.35;3.03;;;15.20;99.90;;;;;;5015407;28;20030;-69
2022/10/27 04:45:34;;;;;;;7.95;2.58;;;15.30;99.90;;;;;;5015798;28;20026;-68
2022/10/27 04:48:00;;;;;;;17.35;3.50;;;15.10;99.90;;;;;;5015106;28;20034;-69
2022/10/27 04:50:26;;;;;;;12.60;2.80;;;15.10;99.90;;;;;;4997745;28;20045;-69
2022/10/27 04:53:00;;;;;;;7.10;2.70;;;15.10;99.90;;;;;;5015254;28;20022;-69
2022/10/27 04:55:28;;;;;;;9.55;2.90;;;15.10;99.90;;;;;;5015377;28;20033;-69
2022/10/27 04:57:54;;;;;;;9.95;2.33;;;15.20;99.90;;;;;;5015136;28;20030;-69
2022/10/27 05:00:20;;;;;;;11.27;2.72;;;15.30;99.90;;;;;;5015223;28;20026;-69
2022/10/27 05:02:53;;;;;;;9.30;2.83;;;15.20;99.90;;;;;;5014927;28;20036;-69
2022/10/27 05:05:18;;;;;;;8.35;2.88;;;15.10;99.90;;;;;;5014796;28;20041;-69
2022/10/27 05:07:51;;;;;;;9.43;2.83;;;15.20;99.90;;;;;;4997367;28;20454;-69
2022/10/27 05:10:16;;;;;;;7.03;2.78;;;15.10;99.90;;;;;;5014797;28;20125;-69
2022/10/27 05:12:42;;;;;;;9.93;3.20;;;15.00;99.90;;;;;;5014950;28;20097;-69
2022/10/27 05:15:08;;;;;;;10.60;3.25;;;14.80;99.90;;;;;;5014852;28;20034;-69
2022/10/27 05:17:35;;;;;;;14.98;2.70;;;14.90;99.90;;;;;;5014767;28;20026;-69
2022/10/27 05:20:02;;;;;;;6.80;2.55;;;14.80;99.90;;;;;;5014413;28;20029;-69
2022/10/27 05:22:27;;;;;;;9.25;3.10;;;14.70;99.90;;;;;;4997045;28;20033;-69
2022/10/27 05:24:53;;;;;;;10.27;3.67;;;14.70;99.90;;;;;;5014725;28;20026;-69
2022/10/27 05:27:19;;;;;;;10.75;3.20;;;14.60;99.90;;;;;;5013594;28;20482;-69
2022/10/27 05:29:45;;;;;;;7.70;3.50;;;14.70;99.90;;;;;;5014413;28;20042;-69
2022/10/27 05:32:11;;;;;;;8.68;2.90;;;14.70;99.90;;;;;;5014426;28;20030;-69
2022/10/27 05:34:36;;;;;;;7.43;2.80;;;14.70;99.90;;;;;;5014095;28;20025;-69
2022/10/27 05:37:03;;;;;;;5.60;2.60;;;14.60;99.90;;;;;;5014238;28;20025;-69
2022/10/27 05:39:29;;;;;;;9.93;3.35;;;14.50;99.90;;;;;;4996816;28;20045;-69
2022/10/27 05:41:54;;;;;;;9.75;2.75;;;14.60;99.90;;;;;;5014387;28;20034;-69
2022/10/27 05:44:20;;;;;;;9.32;2.75;;;14.50;99.90;;;;;;5014463;28;20109;-69
2022/10/27 05:46:46;;;;;;;5.80;2.50;;;14.50;99.90;;;;;;5009225;28;20033;-69
2022/10/27 05:49:11;;;;;;;11.45;2.28;;;14.60;99.90;;;;;;5008743;28;20029;-68
2022/10/27 05:51:37;;;;;;;9.68;3.20;;;14.60;99.90;;;;;;5013176;28;20045;-69
2022/10/27 05:54:03;;;;;;;6.97;2.95;;;14.60;99.90;;;;;;5012460;28;20018;-69
2022/10/27 05:56:29;;;;;;;14.70;2.80;;;14.60;99.90;;;;;;5013382;28;20041;-69
2022/10/27 05:58:55;;;;;;;12.93;3.38;;;14.60;99.90;;;;;;4996987;28;20026;-69
2022/10/27 06:01:21;;;;;;;5.72;2.10;;;14.70;99.90;;;;;;5013166;28;20359;-69
2022/10/27 06:03:46;;;;;;;13.13;2.72;;;14.60;99.90;;;;;;5012284;28;20034;-69
2022/10/27 06:06:12;;;;;;;9.27;3.00;;;14.60;99.90;;;;;;4995563;28;20038;-69
2022/10/27 06:08:38;;;;;;;11.32;2.97;;;14.60;99.90;;;;;;5013008;28;20030;-68
2022/10/27 06:11:04;;;;;;;11.95;2.80;;;14.70;99.90;;;;;;5012351;28;20044;-69
2022/10/27 06:13:30;;;;;;;10.73;3.10;;;14.70;99.90;;;;;;5012591;28;20101;-68
2022/10/27 06:15:55;;;;;;;8.07;3.55;;;14.80;99.90;;;;;;5002463;28;20042;-69
2022/10/27 06:18:21;;;;;;;13.82;3.25;;;14.90;99.90;;;;;;5012214;28;20038;-69
2022/10/27 06:20:47;;;;;;;10.07;3.20;;;15.00;99.90;;;;;;5012816;28;20018;-68
2022/10/27 06:23:13;;;;;;;12.18;3.00;;;15.00;99.90;;;;;;5012530;28;20494;-69
2022/10/27 06:25:38;;;;;;;15.38;2.95;;;15.00;99.90;;;;;;4995134;28;20092;-69
2022/10/27 06:28:04;;;;;;;10.52;2.55;;;15.00;99.90;;;;;;4993922;28;20033;-69
2022/10/27 06:30:30;;;;;;;14.45;3.47;;;15.00;99.90;;;;;;5004378;28;20097;-70
2022/10/27 06:32:56;;;;;;;16.05;3.40;;;14.90;99.90;;;;;;5010325;28;20025;-69
2022/10/27 06:35:21;;;;;;;9.48;2.97;;;15.00;99.90;;;;;;5012425;28;20438;-69
2022/10/27 06:37:47;;;;;;;9.23;3.00;;;15.00;99.90;;;;;;5012074;28;20022;-69
2022/10/27 06:40:15;;;;;;;16.15;3.10;;;15.10;99.90;;;;;;5011957;28;20026;-69
2022/10/27 06:42:41;;;;;;;11.00;2.55;;;15.20;99.90;;;;;;5012373;28;20458;-69
2022/10/27 06:45:08;;;;;;;20.17;2.63;;;15.20;99.90;;;;;;5012204;28;20061;-69
2022/10/27 06:47:33;;;;;;;8.50;2.30;;;15.20;99.90;;;;;;5009994;28;20058;-69
2022/10/27 06:49:59;;;;;;;9.55;2.47;;;15.10;99.90;;;;;;5012104;28;20034;-69
2022/10/27 06:52:26;;;;;;;6.28;2.30;;;15.20;99.90;;;;;;5012290;28;20026;-69
2022/10/27 06:54:52;;;;;;;16.08;2.53;;;15.20;99.90;;;;;;4994426;28;20045;-69
2022/10/27 06:57:17;;;;;;;13.52;2.30;;;15.30;99.90;;;;;;5012394;28;20123;-69
2022/10/27 06:59:43;;;;;;;11.80;2.35;;;15.30;99.90;;;;;;5012219;28;20029;-68
2022/10/27 07:02:10;;;;;;;9.68;2.63;;;15.50;99.90;;;;;;5010714;28;20053;-69
2022/10/27 07:04:36;;;;;;;10.27;1.90;;;15.60;99.90;;;;;;5012083;28;20018;-69
2022/10/27 07:07:02;;;;;;;8.35;2.55;;;15.50;99.90;;;;;;4994369;28;20030;-69
2022/10/27 07:09:28;;;;;;;16.55;2.45;;;15.60;99.90;;;;;;4994484;28;20041;-69
2022/10/27 07:11:54;;;;;;;17.02;1.88;;;15.60;99.90;;;;;;5011871;28;20042;-69
2022/10/27 07:14:19;;;;;;;11.07;1.77;;;15.60;99.90;;;;;;4994472;28;20080;-69
2022/10/27 07:16:45;;;;;;;24.48;2.95;;;15.70;99.90;;;;;;5011684;28;20037;-69
2022/10/27 07:19:11;;;;;;;18.77;2.53;;;15.70;99.90;;;;;;5011932;28;20149;-69
2022/10/27 07:21:37;;;;;;;11.27;2.20;;;15.60;99.90;;;;;;5008989;28;20030;-69
2022/10/27 07:24:02;;;;;;;10.75;2.08;;;15.70;99.90;;;;;;5012659;28;20022;-68
2022/10/27 07:26:28;;;;;;;12.43;2.13;;;15.70;99.90;;;;;;5012868;28;20026;-69
2022/10/27 07:28:54;;;;;;;20.77;2.35;;;15.70;99.90;;;;;;5012553;28;20141;-70
2022/10/27 07:31:20;;;;;;;9.77;1.80;;;15.80;99.90;;;;;;5011169;28;20776;-69
2022/10/27 07:33:45;;;;;;;10.27;2.10;;;15.90;99.90;;;;;;5012389;28;20446;-69
2022/10/27 07:36:11;;;;;;;7.80;1.77;;;15.90;99.90;;;;;;5012360;28;20026;-69
2022/10/27 07:38:38;;;;;;;5.32;1.65;;;16.00;99.90;;;;;;5012981;28;20459;-69
2022/10/27 07:41:04;;;;;;;9.80;1.60;;;16.10;99.90;;;;;;5012223;28;20037;-69
2022/10/27 07:43:30;;;;;;;11.75;2.15;;;16.20;99.90;;;;;;5012710;28;20068;-69
2022/10/27 07:45:56;;;;;;;13.63;1.85;;;16.30;99.90;;;;;;5012117;28;20508;-69
2022/10/27 07:48:22;;;;;;;14.90;1.90;;;16.40;99.90;;;;;;5012475;28;20028;-69
2022/10/27 07:50:48;;;;;;;10.52;1.63;;;16.50;99.90;;;;;;5012910;28;20045;-69
2022/10/27 07:53:15;;;;;;;12.80;1.85;;;16.50;99.90;;;;;;5016241;28;20014;-69
2022/10/27 07:55:40;;;;;;;13.75;1.55;;;16.70;99.90;;;;;;4998739;28;20037;-69
2022/10/27 07:58:14;;;;;;;9.90;1.77;;;16.80;99.90;;;;;;5015902;28;20382;-69
2022/10/27 08:00:42;;;;;;;5.80;1.75;;;16.80;99.90;;;;;;5015925;28;20053;-68
2022/10/27 08:03:21;;;;;;;13.75;2.03;;;16.80;99.90;;;;;;5015811;28;20018;-69
2022/10/27 08:05:48;;;;;;;16.70;2.83;;;16.90;99.90;;;;;;5016155;28;20034;-69
2022/10/27 08:08:14;;;;;;;8.60;1.95;;;17.00;99.90;;;;;;5015919;28;20101;-69
2022/10/27 08:10:41;;;;;;;8.63;2.25;;;17.00;99.90;;;;;;5006070;28;20073;-69
2022/10/27 08:13:08;;;;;;;13.00;1.85;;;16.90;99.90;;;;;;5015818;28;20030;-69
2022/10/27 08:15:34;;;;;;;10.82;1.70;;;17.10;99.90;;;;;;5015414;28;20033;-69
2022/10/27 08:18:02;;;;;;;9.00;1.63;;;17.10;99.90;;;;;;5015939;28;20097;-69
2022/10/27 08:20:31;;;;;;;14.32;2.00;;;17.10;99.90;;;;;;5015897;28;20034;-69
2022/10/27 08:23:24;;;;;;;8.30;1.80;;;17.20;99.90;;;;;;4998135;28;20398;-69
2022/10/27 08:25:50;;;;;;;11.73;1.92;;;17.30;99.90;;;;;;5015612;28;20061;-69
2022/10/27 08:28:16;;;;;;;10.43;2.47;;;17.30;99.90;;;;;;5015514;28;20014;-69
2022/10/27 08:30:43;;;;;;;8.38;1.73;;;17.30;99.90;;;;;;5015711;28;20049;-68
2022/10/27 08:33:09;;;;;;;10.65;1.70;;;17.30;99.90;;;;;;5015584;28;20466;-69
2022/10/27 08:35:35;;;;;;;4.78;1.70;;;17.40;99.90;;;;;;5015891;28;20042;-69
2022/10/27 08:38:03;;;;;;;6.88;1.65;;;17.40;99.90;;;;;;5015626;28;20367;-68
2022/10/27 08:41:02;;;;;;;4.28;1.50;;;17.50;99.90;;;;;;4998281;28;20497;-68
2022/10/27 08:43:40;;;;;;;5.70;1.60;;;17.50;99.90;;;;;;4997922;28;20030;-69
2022/10/27 08:46:19;;;;;;;4.28;1.55;;;17.60;99.90;;;;;;5015302;28;20096;-69
2022/10/27 08:48:46;;;;;;;8.02;1.67;;;17.70;99.90;;;;;;5003518;28;20096;-69
2022/10/27 08:51:19;;;;;;;5.88;1.60;;;17.80;99.90;;;;;;4997601;28;20041;-69
2022/10/27 08:53:50;;;;;;;9.10;1.75;;;17.90;99.90;;;;;;5002747;28;20092;-69
2022/10/27 08:56:16;;;;;;;11.73;2.05;;;18.00;99.90;;;;;;5015270;28;20065;-69
2022/10/27 08:58:46;;;;;;;11.98;1.67;;;18.10;99.90;;;;;;5014625;28;20478;-69
2022/10/27 09:01:18;;;;;;;21.92;2.75;;;18.20;99.90;;;;;;5015020;28;20034;-69
2022/10/27 09:03:46;;;;;;;;;;;18.20;99.90;;;;;;5015619;28;20088;-69
2022/10/27 09:06:21;;;;;;;8.75;1.88;;;18.30;99.90;;;;;;5015082;28;19960;-69
2022/10/27 09:09:18;;;;;;;11.88;2.17;;;18.30;99.90;;;;;;4997304;28;20037;-69
2022/10/27 09:12:09;;;;;;;15.30;2.10;;;18.60;99.90;;;;;;5014721;28;20037;-69
2022/10/27 09:15:10;;;;;;;12.48;1.55;;;19.10;99.90;;;;;;5014989;28;20489;-69
2022/10/27 09:17:45;;;;;;;7.80;1.70;;;19.40;99.90;;;;;;5012030;28;20105;-69
2022/10/27 09:20:28;;;;;;;7.35;1.52;;;19.70;99.90;;;;;;5014760;28;20034;-69
2022/10/27 09:22:58;;;;;;;10.82;2.20;;;20.00;99.90;;;;;;5014622;28;20084;-69
2022/10/27 09:25:24;;;;;;;7.78;1.83;;;20.10;99.90;;;;;;4997440;28;20083;-69
2022/10/27 09:27:57;;;;;;;12.35;1.88;;;19.90;99.90;;;;;;5014260;28;20061;-69
2022/10/27 09:30:23;;;;;;;8.38;2.33;;;19.90;99.90;;;;;;5014569;28;20125;-69
2022/10/27 09:32:52;;;;;;;12.63;1.75;;;19.60;99.90;;;;;;5014582;28;20109;-69
2022/10/27 09:35:23;;;;;;;10.93;1.98;;;19.30;99.90;;;;;;5014466;28;20061;-69
2022/10/27 09:37:51;;;;;;;9.18;1.88;;;19.10;99.90;;;;;;5014631;28;20427;-69
2022/10/27 09:40:19;;;;;;;14.85;2.25;;;19.30;99.90;;;;;;5014127;28;20394;-69
2022/10/27 09:42:47;;;;;;;15.80;2.25;;;19.40;99.90;;;;;;4996748;28;20065;-69
2022/10/27 09:45:19;;;;;;;8.40;2.50;;;19.60;99.90;;;;;;5014280;28;20033;-69
2022/10/27 09:47:49;;;;;;;10.93;1.60;;;19.60;99.90;;;;;;4996223;28;20034;-69
2022/10/27 09:50:21;;;;;;;12.82;2.35;;;19.60;99.90;;;;;;5013775;28;20037;-69
2022/10/27 09:52:47;;;;;;;17.35;2.50;;;19.80;99.90;;;;;;5014126;28;20370;-69
2022/10/27 09:55:14;;;;;;;14.18;2.25;;;19.70;99.90;;;;;;4996197;28;20584;-69
2022/10/27 09:57:41;;;;;;;15.00;2.35;;;19.60;99.90;;;;;;5014073;28;20084;-69
2022/10/27 10:00:20;;;;;;;11.43;2.28;;;19.50;99.90;;;;;;5013886;28;20089;-69
2022/10/27 10:03:01;;;;;;;20.25;2.58;;;19.40;99.90;;;;;;5013676;28;20048;-69
2022/10/27 10:05:33;;;;;;;7.72;2.35;;;19.40;99.90;;;;;;5013459;28;20034;-69
2022/10/27 10:08:25;;;;;;;7.28;1.98;;;19.50;99.90;;;;;;5013951;28;20029;-69
2022/10/27 10:10:56;;;;;;;10.30;1.83;;;19.70;99.90;;;;;;4984035;28;20081;-69
2022/10/27 10:13:22;;;;;;;4.68;1.70;;;19.80;99.90;;;;;;5012763;28;20031;-69
2022/10/27 10:16:03;;;;;;;14.73;2.20;;;19.60;99.90;;;;;;5013814;28;20025;-69
2022/10/27 10:18:30;;;;;;;14.15;2.72;;;19.60;99.90;;;;;;4996016;28;20077;-69
2022/10/27 10:21:04;;;;;;;9.05;1.70;;;19.60;99.90;;;;;;5013577;28;20022;-69
2022/10/27 10:23:38;;;;;;;9.93;1.85;;;19.70;99.90;;;;;;4995983;28;20466;-69
2022/10/27 10:26:19;;;;;;;8.48;2.20;;;19.70;99.90;;;;;;5013513;28;20049;-69
2022/10/27 10:28:45;;;;;;;9.70;1.90;;;19.80;99.90;;;;;;5013529;28;20068;-69
2022/10/27 10:31:14;;;;;;;12.30;1.80;;;19.80;99.90;;;;;;5018236;28;20371;-69
2022/10/27 10:33:44;;;;;;;10.38;2.42;;;19.90;99.90;;;;;;5013986;28;20026;-69
2022/10/27 10:36:34;;;;;;;12.05;2.38;;;19.90;99.90;;;;;;5013422;28;20046;-69
2022/10/27 10:39:00;;;;;;;17.25;2.33;;;19.80;99.90;;;;;;5005720;28;20492;-69
2022/10/27 10:41:28;;;;;;;8.88;2.42;;;19.90;99.90;;;;;;5013298;28;20022;-69
2022/10/27 10:44:15;;;;;;;9.10;2.28;;;20.00;99.90;;;;;;5013346;28;20042;-69
2022/10/27 10:46:53;;;;;;;14.25;2.67;;;20.00;99.90;;;;;;5013124;28;20459;-69
2022/10/27 10:49:24;;;;;;;13.55;2.40;;;19.90;99.90;;;;;;4995597;28;20030;-70
2022/10/27 10:51:55;;;;;;;14.40;2.25;;;19.80;99.90;;;;;;5013094;28;20390;-72
2022/10/27 10:54:31;;;;;;;15.30;2.33;;;19.80;99.90;;;;;;5012875;28;20022;-71
2022/10/27 10:56:58;;;;;;;13.43;3.38;;;20.00;99.90;;;;;;5012941;28;20065;-70
2022/10/27 10:59:27;;;;;;;10.35;2.58;;;19.90;99.90;;;;;;4995062;28;20033;-70
2022/10/27 11:02:24;;;;;;;15.70;2.20;;;20.00;99.90;;;;;;5012797;28;20026;-70
2022/10/27 11:04:50;;;;;;;9.77;2.38;;;20.00;99.90;;;;;;5013021;28;20462;-70
2022/10/27 11:07:23;;;;;;;12.70;2.10;;;19.90;99.90;;;;;;5012256;28;20025;-70
2022/10/27 11:10:11;;;;;;;7.72;2.53;;;20.00;99.90;;;;;;5007858;28;20065;-70
2022/10/27 11:12:59;;;;;;;14.13;2.45;;;20.10;99.90;;;;;;5005112;28;20026;-70
2022/10/27 11:15:32;;;;;;;15.73;3.33;;;20.20;99.90;;;;;;5012639;28;20029;-70
2022/10/27 11:18:03;;;;;;;11.00;2.88;;;20.20;99.90;;;;;;4999602;28;20034;-70
2022/10/27 11:20:35;;;;;;;8.70;2.40;;;20.30;99.90;;;;;;5012618;28;20185;-70
2022/10/27 11:23:10;;;;;;;10.25;2.30;;;20.50;99.90;;;;;;5012517;28;20026;-70
2022/10/27 11:25:36;;;;;;;23.73;4.05;;;20.60;99.90;;;;;;5013420;28;20379;-70
2022/10/27 11:28:25;;;;;;;13.65;2.80;;;20.70;99.90;;;;;;5016905;28;20105;-70
2022/10/27 11:30:54;;;;;;;19.40;2.58;;;20.70;99.90;;;;;;5016491;28;20100;-70
2022/10/27 11:33:31;;;;;;;11.13;2.33;;;20.70;99.90;;;;;;5016664;28;20389;-70
2022/10/27 11:36:32;;;;;;;11.73;3.05;;;20.70;99.90;;;;;;5016705;28;20073;-70
2022/10/27 11:39:07;;;;;;;19.47;3.90;;;20.70;99.90;;;;;;5006507;28;20492;-70
2022/10/27 11:41:42;;;;;;;18.98;3.00;;;20.70;99.90;;;;;;5016407;28;20327;-71
2022/10/27 11:44:24;;;;;;;11.80;3.25;;;20.80;99.90;;;;;;5016790;28;20104;-69
2022/10/27 11:47:18;;;;;;;11.65;3.08;;;20.90;99.90;;;;;;5015912;28;20398;-69
2022/10/27 11:49:48;;;;;;;14.32;2.97;;;20.90;99.90;;;;;;5015148;28;20034;-69
2022/10/27 11:52:28;;;;;;;10.23;2.92;;;20.80;99.90;;;;;;4998624;28;20030;-69
2022/10/27 11:54:55;;;;;;;8.38;2.75;;;21.00;99.90;;;;;;5016396;28;20033;-69
2022/10/27 11:57:29;;;;;;;14.10;3.83;;;21.00;99.90;;;;;;5016297;28;20056;-69
2022/10/27 12:00:14;;;;;;;10.40;2.60;;;21.20;99.90;;;;;;5016240;28;20026;-70
2022/10/27 12:02:56;;;;;;;18.55;3.13;;;21.10;99.90;;;;;;5016189;28;20045;-69
2022/10/27 12:05:22;;;;;;;;;;;21.10;99.90;;;;;;5016211;28;20061;-69
2022/10/27 12:08:06;;;;;;;16.35;3.30;;;21.30;99.90;;;;;;5016432;28;20366;-67
2022/10/27 12:10:57;;;;;;;11.52;3.13;;;21.50;99.90;;;;;;5015821;28;20030;-68
2022/10/27 12:13:45;;;;;;;16.40;3.00;;;21.70;99.90;;;;;;5015447;28;20040;-68
2022/10/27 12:16:29;;;;;;;16.33;3.10;;;21.80;99.90;;;;;;5012018;28;20026;-68
2022/10/27 12:19:17;;;;;;;16.27;4.03;;;22.00;99.90;;;;;;5015566;28;20057;-70
2022/10/27 12:21:48;;;;;;;9.32;3.20;;;22.20;99.90;;;;;;5014666;28;20033;-69
2022/10/27 12:24:24;;;;;;;;;;;22.40;99.90;;;;;;5016337;28;20030;-69
2022/10/27 12:26:56;;;;;;;14.10;3.28;;;22.70;99.90;;;;;;5015938;28;19913;-70
2022/10/27 12:29:29;;;;;;;17.52;2.92;;;23.10;99.90;;;;;;5015371;28;20533;-69
2022/10/27 12:32:05;;;;;;;19.70;3.30;;;23.00;99.90;;;;;;5015705;28;20037;-68
2022/10/27 12:34:39;;;;;;;15.25;3.33;;;22.90;99.90;;;;;;5015267;28;20541;-68
2022/10/27 12:37:29;;;;;;;16.52;3.05;;;22.80;99.90;;;;;;5014730;28;20037;-68
2022/10/27 12:40:08;;;;;;;11.63;2.90;;;22.80;99.90;;;;;;5001380;28;20091;-71
2022/10/27 12:42:57;;;;;;;12.75;2.92;;;22.90;99.90;;;;;;5011411;28;20100;-71
2022/10/27 12:46:04;;;;;;;11.52;3.35;;;22.60;99.90;;;;;;4998888;28;20050;-70
2022/10/27 12:49:03;;;;;;;13.13;2.70;;;22.50;99.90;;;;;;5009613;28;20121;-71
2022/10/27 12:51:43;;;;;;;9.38;3.10;;;22.70;99.90;;;;;;5010365;28;20037;-71
2022/10/27 12:54:21;;;;;;;13.33;3.60;;;22.60;99.90;;;;;;5014645;28;20116;-71
2022/10/27 12:57:16;;;;;;;11.38;3.28;;;22.90;99.90;;;;;;5014222;28;20021;-70
2022/10/27 13:00:21;;;;;;;14.05;3.40;;;23.30;99.90;;;;;;4990806;28;20041;-71
2022/10/27 13:03:24;;;;;;;13.63;2.92;;;23.90;99.90;;;;;;4995519;28;20152;-70